Time;durP1;ratioP1;P1;durP2;ratioP2;P2;SDS_P1;SDS_P2;PMS_P1;PMS_P2;Temp;Humidity;BMP_temperature;BMP_pressure;BME280_temperature;BME280_humidity;BME280_pressure;Samples;Min_cycle;Max_cycle;Signal;HPM_P1;HPM_P2
2022/07/07 00:01:55;;;;;;;4.90;4.45;;;14.40;99.90;;;;;;5049695;28;20111;-79
2022/07/07 00:04:20;;;;;;;4.57;4.18;;;14.40;99.90;;;;;;5060939;28;20095;-79
2022/07/07 00:06:46;;;;;;;5.28;4.50;;;14.40;99.90;;;;;;5048738;28;20165;-79
2022/07/07 00:09:11;;;;;;;4.47;4.07;;;14.40;99.90;;;;;;5070319;28;20552;-79
2022/07/07 00:11:37;;;;;;;4.80;4.13;;;14.30;99.90;;;;;;5061926;28;20079;-79
2022/07/07 00:14:07;;;;;;;4.47;4.05;;;14.40;99.90;;;;;;5050725;28;20480;-80
2022/07/07 00:16:32;;;;;;;5.20;4.75;;;14.40;99.90;;;;;;5048145;28;20040;-80
2022/07/07 00:18:58;;;;;;;4.32;3.92;;;14.40;99.90;;;;;;5042337;28;20415;-80
2022/07/07 00:21:23;;;;;;;3.85;3.55;;;14.40;99.90;;;;;;5065203;28;20032;-80
2022/07/07 00:23:49;;;;;;;4.35;3.95;;;14.40;99.90;;;;;;5049087;28;20036;-80
2022/07/07 00:26:15;;;;;;;4.07;3.67;;;14.40;99.90;;;;;;5046399;28;20084;-80
2022/07/07 00:28:40;;;;;;;3.47;3.22;;;14.40;99.90;;;;;;5050154;28;20066;-80
2022/07/07 00:31:06;;;;;;;4.00;3.60;;;14.40;99.90;;;;;;5047527;28;20617;-81
2022/07/07 00:33:31;;;;;;;3.95;3.65;;;14.50;99.90;;;;;;5064721;28;20039;-80
2022/07/07 00:35:57;;;;;;;3.45;3.20;;;14.50;99.90;;;;;;5051660;28;20498;-79
2022/07/07 00:38:22;;;;;;;3.65;3.35;;;14.50;99.90;;;;;;5043795;28;20028;-80
2022/07/07 00:40:53;;;;;;;3.50;3.20;;;14.50;99.90;;;;;;5043815;28;20016;-79
2022/07/07 00:43:18;;;;;;;3.83;3.53;;;14.50;99.90;;;;;;5054251;28;20017;-79
2022/07/07 00:45:48;;;;;;;3.55;3.22;;;14.50;99.90;;;;;;5047987;28;20081;-79
2022/07/07 00:48:15;;;;;;;3.22;3.03;;;14.50;99.90;;;;;;5065995;28;20399;-80
2022/07/07 00:50:43;;;;;;;3.40;3.10;;;14.50;99.90;;;;;;5043949;28;20021;-80
2022/07/07 00:53:09;;;;;;;3.70;3.35;;;14.50;99.90;;;;;;5041863;28;20119;-80
2022/07/07 00:55:34;;;;;;;3.40;3.05;;;14.50;99.90;;;;;;5043692;28;20108;-80
2022/07/07 00:58:00;;;;;;;3.95;3.42;;;14.50;99.90;;;;;;5046685;28;20028;-79
2022/07/07 01:00:25;;;;;;;3.53;3.10;;;14.50;99.90;;;;;;5045529;28;20021;-80
2022/07/07 01:02:51;;;;;;;3.47;3.28;;;14.50;99.90;;;;;;5066369;28;20143;-79
2022/07/07 01:05:17;;;;;;;3.15;2.95;;;14.50;99.90;;;;;;5042527;28;20044;-80
2022/07/07 01:07:43;;;;;;;3.20;2.85;;;14.60;99.90;;;;;;5060764;28;20025;-79
2022/07/07 01:10:09;;;;;;;2.70;2.50;;;14.60;99.90;;;;;;5049185;28;20086;-79
2022/07/07 01:12:44;;;;;;;4.43;3.00;;;14.60;99.90;;;;;;5044737;28;20048;-81
2022/07/07 01:15:12;;;;;;;3.30;3.00;;;14.60;99.90;;;;;;5047794;28;20032;-78
2022/07/07 01:17:39;;;;;;;3.00;2.80;;;14.60;99.90;;;;;;5068551;28;20029;-80
2022/07/07 01:20:06;;;;;;;3.58;3.30;;;14.60;99.90;;;;;;5045609;28;20027;-79
2022/07/07 01:22:34;;;;;;;3.80;3.50;;;14.60;99.90;;;;;;5048092;28;20492;-79
2022/07/07 01:25:01;;;;;;;3.80;3.47;;;14.60;99.90;;;;;;5041219;28;20052;-79
2022/07/07 01:27:27;;;;;;;4.15;3.50;;;14.60;99.90;;;;;;5062872;28;20021;-79
2022/07/07 01:29:54;;;;;;;3.40;3.10;;;14.60;99.90;;;;;;5061274;28;20499;-77
2022/07/07 01:32:22;;;;;;;4.35;3.95;;;14.60;99.90;;;;;;5045441;28;20032;-78
2022/07/07 01:34:48;;;;;;;4.35;3.90;;;14.60;99.90;;;;;;5065754;28;20467;-80
2022/07/07 01:37:14;;;;;;;3.50;3.20;;;14.60;99.90;;;;;;5042927;28;20057;-79
2022/07/07 01:39:41;;;;;;;4.03;3.63;;;14.60;99.90;;;;;;5067370;28;20050;-79
2022/07/07 01:42:08;;;;;;;5.35;3.90;;;14.60;99.90;;;;;;5046590;28;20675;-79
2022/07/07 01:44:35;;;;;;;4.63;3.63;;;14.60;99.90;;;;;;5050504;28;20454;-79
2022/07/07 01:47:01;;;;;;;3.58;3.25;;;14.60;99.90;;;;;;5052083;28;20036;-80
2022/07/07 01:49:29;;;;;;;3.63;3.33;;;14.70;99.90;;;;;;5045097;28;20099;-79
2022/07/07 01:51:54;;;;;;;4.60;3.85;;;14.70;99.90;;;;;;5069181;28;20017;-79
2022/07/07 01:54:20;;;;;;;4.50;4.10;;;14.70;99.90;;;;;;5048737;28;20074;-79
2022/07/07 01:56:46;;;;;;;5.28;4.78;;;14.70;99.90;;;;;;5081524;28;20020;-79
2022/07/07 01:59:12;;;;;;;4.53;3.78;;;14.70;99.90;;;;;;5076888;28;20016;-80
2022/07/07 02:01:38;;;;;;;5.88;4.80;;;14.70;99.90;;;;;;5054254;28;20078;-80
2022/07/07 02:04:05;;;;;;;4.82;4.43;;;14.70;99.90;;;;;;5044448;28;20012;-79
2022/07/07 02:06:30;;;;;;;5.28;4.88;;;14.70;99.90;;;;;;5047520;28;20025;-79
2022/07/07 02:08:56;;;;;;;5.93;5.32;;;14.70;99.90;;;;;;5045431;28;20027;-80
2022/07/07 02:11:22;;;;;;;5.13;4.70;;;14.70;99.90;;;;;;5044986;28;20439;-80
2022/07/07 02:13:50;;;;;;;6.05;5.45;;;14.80;99.90;;;;;;5051718;28;20029;-80
2022/07/07 02:16:18;;;;;;;4.72;4.32;;;14.80;99.90;;;;;;5054831;28;20123;-80
2022/07/07 02:18:45;;;;;;;6.13;5.53;;;14.80;99.90;;;;;;5069094;28;20052;-79
2022/07/07 02:21:13;;;;;;;6.00;5.50;;;14.80;99.90;;;;;;5063071;28;20020;-80
2022/07/07 02:23:40;;;;;;;5.63;5.13;;;14.80;99.90;;;;;;5049690;28;20021;-79
2022/07/07 02:26:06;;;;;;;5.18;4.68;;;14.80;99.90;;;;;;5049646;28;20250;-79
2022/07/07 02:28:32;;;;;;;5.63;5.13;;;14.80;99.90;;;;;;5070346;28;20037;-79
2022/07/07 02:30:59;;;;;;;5.53;5.03;;;14.80;99.90;;;;;;5042624;28;20024;-79
2022/07/07 02:33:25;;;;;;;5.55;5.05;;;14.80;99.90;;;;;;5047820;28;20031;-78
2022/07/07 02:35:52;;;;;;;5.20;4.72;;;14.80;99.90;;;;;;5049776;28;20418;-79
2022/07/07 02:38:18;;;;;;;5.07;4.68;;;14.80;99.90;;;;;;5041202;28;20020;-79
2022/07/07 02:40:44;;;;;;;5.82;5.22;;;14.90;99.90;;;;;;5045983;28;20472;-79
2022/07/07 02:43:13;;;;;;;5.72;5.22;;;14.90;99.90;;;;;;5044443;28;20029;-79
2022/07/07 02:45:40;;;;;;;7.18;6.22;;;14.90;99.90;;;;;;5051828;28;20584;-80
2022/07/07 02:48:09;;;;;;;6.25;5.65;;;14.90;99.90;;;;;;5051117;28;20451;-79
2022/07/07 02:50:36;;;;;;;8.45;7.55;;;14.90;99.90;;;;;;5045270;28;20017;-80
2022/07/07 02:53:02;;;;;;;7.60;6.85;;;14.90;99.90;;;;;;5063116;28;20117;-80
2022/07/07 02:55:28;;;;;;;6.68;6.00;;;14.90;99.90;;;;;;5045737;28;20047;-79
2022/07/07 02:57:53;;;;;;;7.03;6.32;;;15.00;99.90;;;;;;5044848;28;20021;-79
2022/07/07 03:00:19;;;;;;;6.57;5.97;;;15.00;99.90;;;;;;5060488;28;20151;-79
2022/07/07 03:09:32;;;;;;;7.60;6.75;;;15.00;99.90;;;;;;5196335;22;20056;-51
2022/07/07 03:11:57;;;;;;;7.60;6.80;;;15.00;99.90;;;;;;5089543;28;20073;-53
2022/07/07 03:14:24;;;;;;;8.43;6.55;;;15.00;99.90;;;;;;5089859;28;20012;-51
2022/07/07 03:16:50;;;;;;;7.90;7.10;;;15.00;99.90;;;;;;5071366;28;20424;-52
2022/07/07 03:19:16;;;;;;;7.07;6.40;;;15.10;99.90;;;;;;5089853;28;20024;-55
2022/07/07 03:21:41;;;;;;;7.35;6.65;;;15.10;99.90;;;;;;5071502;28;20052;-50
2022/07/07 03:24:07;;;;;;;6.70;6.07;;;15.10;99.90;;;;;;5089737;28;20028;-51
2022/07/07 03:26:32;;;;;;;7.25;6.18;;;15.10;99.90;;;;;;5088448;28;20101;-55
2022/07/07 03:28:58;;;;;;;7.18;6.45;;;15.10;99.90;;;;;;5089807;28;20085;-54
2022/07/07 03:31:24;;;;;;;6.88;6.10;;;15.10;99.90;;;;;;5088551;28;20436;-53
2022/07/07 03:33:49;;;;;;;6.80;6.10;;;15.10;99.90;;;;;;5089853;28;20422;-52
2022/07/07 03:36:15;;;;;;;7.15;6.20;;;15.10;99.90;;;;;;5085364;28;20385;-55
2022/07/07 03:38:41;;;;;;;8.50;6.97;;;15.10;99.90;;;;;;5087873;28;20063;-54
2022/07/07 03:41:06;;;;;;;8.38;7.57;;;15.10;99.90;;;;;;5068198;28;20015;-56
2022/07/07 03:43:32;;;;;;;7.72;7.03;;;15.10;99.90;;;;;;5067069;28;20358;-52
2022/07/07 03:45:58;;;;;;;7.10;6.43;;;15.10;99.90;;;;;;5087689;28;20367;-54
2022/07/07 03:48:23;;;;;;;8.82;6.75;;;15.10;99.90;;;;;;5088624;28;20489;-52
2022/07/07 03:50:49;;;;;;;8.77;7.88;;;15.10;99.90;;;;;;5081955;28;20139;-49
2022/07/07 03:53:15;;;;;;;9.32;8.43;;;15.20;99.90;;;;;;5089221;28;20044;-50
2022/07/07 03:55:41;;;;;;;8.07;7.00;;;15.20;99.90;;;;;;5082642;28;20119;-54
2022/07/07 03:58:06;;;;;;;8.73;7.80;;;15.10;99.90;;;;;;5082788;28;20478;-49
2022/07/07 04:00:32;;;;;;;8.02;7.20;;;15.20;99.90;;;;;;5081378;28;20020;-49
2022/07/07 04:02:57;;;;;;;7.90;7.18;;;15.20;99.90;;;;;;5089057;28;20431;-51
2022/07/07 04:05:23;;;;;;;7.20;6.25;;;15.10;99.90;;;;;;5081176;28;20023;-51
2022/07/07 04:07:48;;;;;;;6.90;6.18;;;15.20;99.90;;;;;;5065921;28;20115;-50
2022/07/07 04:10:15;;;;;;;8.15;7.35;;;15.20;99.90;;;;;;5082503;28;20556;-52
2022/07/07 04:12:40;;;;;;;8.98;7.93;;;15.20;99.90;;;;;;5070819;28;20555;-49
2022/07/07 04:15:06;;;;;;;8.60;6.60;;;15.20;99.90;;;;;;5080199;28;20024;-51
2022/07/07 04:17:32;;;;;;;8.55;7.68;;;15.20;99.90;;;;;;5087487;28;20054;-52
2022/07/07 04:19:58;;;;;;;7.47;6.78;;;15.20;99.90;;;;;;5089325;28;20031;-55
2022/07/07 04:22:24;;;;;;;7.90;7.15;;;15.20;99.90;;;;;;5081146;28;20039;-57
2022/07/07 04:24:49;;;;;;;7.45;6.68;;;15.20;99.90;;;;;;5080656;28;20021;-52
2022/07/07 04:27:15;;;;;;;6.47;5.78;;;15.20;99.90;;;;;;5083852;28;20145;-54
2022/07/07 04:29:40;;;;;;;8.88;7.00;;;15.20;99.90;;;;;;5081191;28;20028;-57
2022/07/07 04:32:06;;;;;;;6.97;5.78;;;15.20;99.90;;;;;;5069428;28;20103;-56
2022/07/07 04:34:32;;;;;;;5.22;4.75;;;15.20;99.90;;;;;;5082054;28;20070;-54
2022/07/07 04:36:58;;;;;;;6.28;5.00;;;15.20;99.90;;;;;;5082504;28;20025;-52
2022/07/07 04:39:23;;;;;;;6.05;5.07;;;15.20;99.90;;;;;;5076718;28;20027;-51
2022/07/07 04:41:49;;;;;;;5.40;4.90;;;15.30;99.90;;;;;;5067177;28;20031;-54
2022/07/07 04:44:15;;;;;;;5.40;4.90;;;15.30;99.90;;;;;;5080474;28;20495;-55
2022/07/07 04:46:40;;;;;;;5.15;4.65;;;15.30;99.90;;;;;;5075735;28;20479;-55
2022/07/07 04:49:06;;;;;;;4.70;4.30;;;15.30;99.90;;;;;;5085989;28;20881;-50
2022/07/07 04:51:31;;;;;;;5.50;4.90;;;15.30;99.90;;;;;;5076863;28;20047;-51
2022/07/07 04:53:57;;;;;;;4.15;3.80;;;15.30;99.90;;;;;;5086501;28;20077;-49
2022/07/07 04:56:23;;;;;;;3.92;3.53;;;15.30;99.90;;;;;;5085899;28;20027;-55
2022/07/07 04:58:48;;;;;;;3.22;2.92;;;15.30;99.90;;;;;;5088777;28;20028;-53
2022/07/07 05:01:14;;;;;;;3.17;2.88;;;15.40;99.90;;;;;;5083200;28;20024;-52
2022/07/07 05:03:40;;;;;;;2.70;2.50;;;15.30;99.90;;;;;;5086590;28;20058;-53
2022/07/07 05:06:06;;;;;;;2.38;2.22;;;15.40;99.90;;;;;;5088743;28;20091;-52
2022/07/07 05:08:31;;;;;;;2.72;2.33;;;15.40;99.90;;;;;;5087219;28;20066;-54
2022/07/07 05:10:57;;;;;;;4.45;2.40;;;15.40;99.90;;;;;;5080462;28;20095;-50
2022/07/07 05:13:23;;;;;;;2.25;1.92;;;15.40;99.90;;;;;;5090549;28;20020;-51
2022/07/07 05:15:48;;;;;;;2.03;1.90;;;15.50;99.90;;;;;;5089170;28;20479;-53
2022/07/07 05:18:17;;;;;;;2.00;1.90;;;15.50;99.90;;;;;;5083989;28;20036;-54
2022/07/07 05:20:42;;;;;;;1.85;1.75;;;15.50;99.90;;;;;;5079623;28;20048;-53
2022/07/07 05:23:09;;;;;;;3.05;2.53;;;15.50;99.90;;;;;;5085792;28;20028;-53
2022/07/07 05:25:34;;;;;;;2.10;1.90;;;15.50;99.90;;;;;;5079892;28;20096;-52
2022/07/07 05:28:00;;;;;;;2.40;1.85;;;15.50;99.90;;;;;;5082420;28;20178;-52
2022/07/07 05:30:26;;;;;;;2.55;1.70;;;15.50;99.90;;;;;;5087580;28;20032;-54
2022/07/07 05:32:51;;;;;;;1.95;1.85;;;15.50;99.90;;;;;;5088329;28;20042;-52
2022/07/07 05:35:17;;;;;;;2.03;1.80;;;15.60;99.90;;;;;;5092318;28;20012;-54
2022/07/07 05:37:43;;;;;;;1.90;1.80;;;15.60;99.90;;;;;;5084672;28;20027;-55
2022/07/07 05:40:09;;;;;;;1.90;1.50;;;15.60;99.90;;;;;;5086292;28;20148;-55
2022/07/07 05:42:34;;;;;;;1.92;1.70;;;15.60;99.90;;;;;;5085338;28;20028;-53
2022/07/07 05:45:00;;;;;;;2.60;1.98;;;15.70;99.90;;;;;;5081361;28;20040;-52
2022/07/07 05:47:26;;;;;;;2.15;1.70;;;15.80;99.90;;;;;;5081752;28;20017;-51
2022/07/07 05:49:52;;;;;;;2.38;1.45;;;15.90;99.90;;;;;;5084234;28;20027;-54
2022/07/07 05:52:18;;;;;;;1.92;1.70;;;15.90;99.90;;;;;;5065474;28;20016;-53
2022/07/07 05:54:44;;;;;;;3.47;1.90;;;16.00;99.90;;;;;;5079689;22;20055;-47
2022/07/07 05:57:09;;;;;;;2.53;2.08;;;16.00;99.90;;;;;;5087407;28;20463;-48
2022/07/07 05:59:35;;;;;;;2.40;2.13;;;16.00;99.90;;;;;;5090781;28;20508;-47
2022/07/07 06:02:00;;;;;;;2.85;2.25;;;16.10;99.90;;;;;;5085788;28;20032;-50
2022/07/07 06:04:26;;;;;;;2.58;1.75;;;16.20;99.90;;;;;;5090048;28;20043;-47
2022/07/07 06:06:52;;;;;;;2.03;1.60;;;16.20;99.90;;;;;;5068422;28;20128;-45
2022/07/07 06:09:18;;;;;;;2.85;1.63;;;16.30;99.90;;;;;;5090807;28;20036;-45
2022/07/07 06:11:44;;;;;;;2.20;2.00;;;16.30;99.90;;;;;;5060881;28;20387;-44
2022/07/07 06:14:10;;;;;;;1.40;1.30;;;16.40;99.90;;;;;;5090148;28;20032;-48
2022/07/07 06:16:39;;;;;;;2.72;1.65;;;16.50;99.90;;;;;;5087170;28;20690;-45
2022/07/07 06:19:05;;;;;;;2.83;1.60;;;16.60;99.90;;;;;;5088589;28;20027;-45
2022/07/07 06:21:31;;;;;;;1.70;1.60;;;16.60;99.90;;;;;;5083025;28;20024;-47
2022/07/07 06:23:56;;;;;;;1.42;1.33;;;16.70;99.90;;;;;;5085221;28;20066;-47
2022/07/07 06:26:22;;;;;;;2.15;1.40;;;16.70;99.90;;;;;;5086060;28;20394;-47
2022/07/07 06:28:47;;;;;;;2.20;1.60;;;16.80;99.90;;;;;;5078224;28;20040;-47
2022/07/07 06:31:13;;;;;;;2.58;1.38;;;16.80;99.90;;;;;;5087950;28;20031;-45
2022/07/07 06:33:38;;;;;;;2.72;1.15;;;16.90;99.90;;;;;;5091327;28;20467;-43
2022/07/07 06:36:05;;;;;;;1.60;1.40;;;16.90;99.90;;;;;;5080395;28;20557;-47
2022/07/07 06:38:30;;;;;;;1.25;1.15;;;17.00;99.90;;;;;;5084498;28;20016;-45
2022/07/07 06:41:00;;;;;;;1.40;1.30;;;16.90;99.90;;;;;;5090288;28;20043;-46
2022/07/07 06:43:25;;;;;;;2.90;1.20;;;16.90;99.90;;;;;;5086337;28;20021;-45
2022/07/07 06:45:51;;;;;;;2.50;1.02;;;16.90;99.90;;;;;;5089149;28;20035;-46
2022/07/07 06:48:17;;;;;;;1.60;1.50;;;17.00;99.90;;;;;;5089135;28;20618;-44
2022/07/07 06:50:43;;;;;;;2.22;1.50;;;17.00;99.90;;;;;;5088255;28;20027;-47
2022/07/07 06:53:09;;;;;;;1.73;1.30;;;17.00;99.90;;;;;;5088834;28;20056;-44
2022/07/07 06:55:34;;;;;;;1.40;1.27;;;16.90;99.90;;;;;;5085609;28;20071;-44
2022/07/07 06:58:02;;;;;;;2.00;1.10;;;16.90;99.90;;;;;;5088980;28;20529;-46
2022/07/07 07:00:28;;;;;;;1.30;1.20;;;16.90;99.90;;;;;;5087199;28;20040;-46
2022/07/07 07:02:54;;;;;;;1.85;1.60;;;16.80;99.90;;;;;;5079628;28;20028;-46
2022/07/07 07:05:19;;;;;;;3.28;1.88;;;16.80;99.90;;;;;;5064545;28;20021;-47
2022/07/07 07:07:45;;;;;;;4.43;1.80;;;16.80;99.90;;;;;;5087617;28;20070;-45
2022/07/07 07:10:11;;;;;;;2.95;1.60;;;16.80;99.90;;;;;;5079176;28;20038;-46
2022/07/07 07:12:37;;;;;;;5.10;2.05;;;16.90;99.90;;;;;;5084293;28;20104;-45
2022/07/07 07:15:03;;;;;;;3.10;1.55;;;16.90;99.90;;;;;;5082752;28;20067;-46
2022/07/07 07:17:29;;;;;;;4.03;2.10;;;17.00;99.90;;;;;;5085624;28;20041;-47
2022/07/07 07:19:54;;;;;;;4.28;1.63;;;17.10;99.90;;;;;;5069503;28;20020;-46
2022/07/07 07:22:20;;;;;;;5.22;2.22;;;17.20;99.90;;;;;;5081095;28;20030;-46
2022/07/07 07:24:46;;;;;;;4.50;1.95;;;17.40;99.90;;;;;;5070915;28;20039;-44
2022/07/07 07:27:11;;;;;;;2.35;1.90;;;17.50;99.90;;;;;;5082316;28;20103;-45
2022/07/07 07:29:37;;;;;;;3.13;1.65;;;17.50;99.90;;;;;;5083937;28;20043;-45
2022/07/07 07:32:03;;;;;;;4.75;2.15;;;17.50;99.90;;;;;;5069895;28;20020;-48
2022/07/07 07:34:29;;;;;;;1.80;1.30;;;17.50;99.90;;;;;;5084604;28;20556;-48
2022/07/07 07:36:55;;;;;;;3.38;1.90;;;17.40;99.90;;;;;;5083367;28;20058;-47
2022/07/07 07:39:21;;;;;;;4.95;2.30;;;17.40;99.90;;;;;;5086958;28;20161;-47
2022/07/07 07:41:46;;;;;;;2.50;1.52;;;17.30;99.90;;;;;;5089419;28;20111;-46
2022/07/07 07:44:12;;;;;;;3.13;1.33;;;17.10;99.90;;;;;;5083361;28;20031;-51
2022/07/07 07:46:37;;;;;;;3.80;1.55;;;17.00;99.90;;;;;;5070520;28;20141;-50
2022/07/07 07:49:06;;;;;;;6.88;1.60;;;16.90;99.90;;;;;;5083137;28;20028;-52
2022/07/07 07:51:35;;;;;;;1.73;1.30;;;16.70;99.90;;;;;;5088166;28;20031;-48
2022/07/07 07:54:00;;;;;;;3.92;1.40;;;16.60;99.90;;;;;;5086596;28;20078;-47
2022/07/07 07:56:26;;;;;;;5.82;1.63;;;16.50;99.90;;;;;;5086483;28;20407;-49
2022/07/07 07:58:52;;;;;;;4.32;1.35;;;16.60;99.90;;;;;;5083184;28;20040;-49
2022/07/07 08:01:17;;;;;;;3.58;1.77;;;16.60;99.90;;;;;;5068277;28;20514;-47
2022/07/07 08:03:43;;;;;;;2.42;1.52;;;16.70;99.90;;;;;;5086662;28;20459;-47
2022/07/07 08:06:09;;;;;;;1.60;1.48;;;16.80;99.90;;;;;;5084465;28;20028;-45
2022/07/07 08:08:34;;;;;;;4.10;1.70;;;16.90;99.90;;;;;;5086034;28;20490;-46
2022/07/07 08:11:00;;;;;;;2.83;1.60;;;17.00;99.90;;;;;;5081793;28;20043;-46
2022/07/07 08:13:25;;;;;;;2.70;1.85;;;17.10;99.90;;;;;;5084997;28;20020;-46
2022/07/07 08:15:51;;;;;;;3.33;1.88;;;17.30;99.90;;;;;;5083103;28;20016;-47
2022/07/07 08:18:17;;;;;;;3.03;1.58;;;17.40;99.90;;;;;;5081204;28;20065;-45
2022/07/07 08:20:42;;;;;;;2.45;1.70;;;17.50;99.90;;;;;;5087713;28;20397;-45
2022/07/07 08:23:08;;;;;;;2.10;1.90;;;17.70;99.90;;;;;;5087760;28;20032;-45
2022/07/07 08:25:34;;;;;;;6.75;1.67;;;17.80;99.90;;;;;;5086803;28;20016;-46
2022/07/07 08:28:00;;;;;;;5.68;1.70;;;17.90;99.90;;;;;;5063703;28;20613;-46
2022/07/07 08:30:25;;;;;;;3.33;1.30;;;17.80;99.90;;;;;;5088834;28;20482;-45
2022/07/07 08:32:51;;;;;;;2.55;1.92;;;17.80;99.90;;;;;;5081175;28;20098;-47
2022/07/07 08:35:17;;;;;;;6.90;1.73;;;17.80;99.90;;;;;;5084137;28;20062;-45
2022/07/07 08:37:43;;;;;;;4.82;1.73;;;17.70;99.90;;;;;;5082765;28;20406;-45
2022/07/07 08:40:09;;;;;;;2.88;1.45;;;17.80;99.90;;;;;;5085234;28;20024;-49
2022/07/07 08:42:36;;;;;;;4.85;1.88;;;17.80;99.90;;;;;;5079148;28;20029;-48
2022/07/07 08:45:03;;;;;;;4.07;2.00;;;18.10;99.90;;;;;;5083549;28;20528;-47
2022/07/07 08:47:29;;;;;;;5.22;1.77;;;18.20;99.90;;;;;;5087063;28;20444;-46
2022/07/07 08:49:55;;;;;;;2.85;1.58;;;18.30;99.90;;;;;;5085067;28;20110;-46
2022/07/07 08:52:20;;;;;;;2.13;1.42;;;18.40;99.90;;;;;;5054546;28;20083;-46
2022/07/07 08:54:47;;;;;;;3.25;1.75;;;18.50;99.90;;;;;;5087242;28;20126;-46
2022/07/07 08:57:13;;;;;;;3.80;1.45;;;18.50;99.90;;;;;;5092494;28;20031;-47
2022/07/07 08:59:39;;;;;;;3.72;1.35;;;18.60;99.90;;;;;;5093304;28;20020;-46
2022/07/07 09:02:04;;;;;;;3.85;1.63;;;18.70;99.90;;;;;;5070797;28;20394;-47
2022/07/07 09:04:30;;;;;;;4.93;1.70;;;18.80;99.90;;;;;;5092802;28;20378;-47
2022/07/07 09:07:00;;;;;;;3.83;1.50;;;18.80;99.90;;;;;;5087222;28;20655;-47
2022/07/07 09:09:49;;;;;;;2.45;1.65;;;18.70;99.90;;;;;;5091802;28;20023;-48
2022/07/07 09:12:16;;;;;;;2.85;1.33;;;18.60;99.90;;;;;;5083655;28;20021;-47
2022/07/07 09:14:44;;;;;;;4.97;1.70;;;18.50;99.90;;;;;;5092083;28;20028;-47
2022/07/07 09:17:27;;;;;;;3.60;1.23;;;18.40;99.90;;;;;;5069791;28;20058;-48
2022/07/07 09:20:10;;;;;;;2.58;1.15;;;18.10;99.90;;;;;;5088077;28;20032;-50
2022/07/07 09:22:54;;;;;;;2.75;1.40;;;17.90;99.90;;;;;;5091735;28;20379;-49
2022/07/07 09:25:25;;;;;;;4.35;1.10;;;17.90;99.90;;;;;;5085161;28;20393;-50
2022/07/07 09:27:56;;;;;;;4.82;1.25;;;17.80;99.90;;;;;;5086768;28;20169;-56
2022/07/07 09:30:48;;;;;;;3.90;1.33;;;17.90;99.90;;;;;;5089335;28;20047;-50
2022/07/07 09:33:26;;;;;;;3.67;1.10;;;18.00;99.90;;;;;;5087981;28;20028;-51
2022/07/07 09:38:41;;;;;;;2.85;1.65;;;18.40;99.90;;;;;;5087391;28;20051;-51
2022/07/07 09:41:15;;;;;;;3.28;1.33;;;18.80;99.90;;;;;;5092110;28;20044;-49
2022/07/07 09:43:48;;;;;;;2.30;0.88;;;18.90;99.90;;;;;;5088149;28;20582;-49
2022/07/07 09:46:19;;;;;;;4.32;1.60;;;18.80;99.90;;;;;;5090832;28;20027;-51
2022/07/07 09:48:51;;;;;;;4.85;1.50;;;18.70;99.90;;;;;;5086537;28;20070;-49
2022/07/07 09:51:28;;;;;;;3.97;1.60;;;18.60;99.90;;;;;;5085806;28;20055;-53
2022/07/07 09:53:55;;;;;;;2.55;0.80;;;18.50;99.90;;;;;;5086137;28;20032;-56
2022/07/07 09:56:45;;;;;;;3.03;1.85;;;18.40;99.90;;;;;;5091537;28;20043;-54
2022/07/07 09:59:13;;;;;;;4.80;1.25;;;18.30;99.90;;;;;;5081251;28;20028;-53
2022/07/07 10:01:43;;;;;;;5.03;1.23;;;18.30;99.90;;;;;;5087040;28;20066;-55
2022/07/07 10:04:11;;;;;;;2.65;1.02;;;18.30;99.90;;;;;;5089937;28;20062;-49
2022/07/07 10:06:40;;;;;;;8.60;1.42;;;18.30;99.90;;;;;;5087070;28;20024;-51
2022/07/07 10:09:20;;;;;;;4.63;1.45;;;18.30;99.90;;;;;;5089192;28;20103;-53
2022/07/07 10:11:47;;;;;;;3.83;1.20;;;18.30;99.90;;;;;;5086279;28;20016;-53
2022/07/07 10:14:14;;;;;;;1.55;1.00;;;18.40;99.90;;;;;;5087974;28;20024;-53
2022/07/07 10:16:41;;;;;;;2.83;1.60;;;18.40;99.90;;;;;;5092053;28;20035;-49
2022/07/07 10:19:11;;;;;;;2.50;1.50;;;18.50;99.90;;;;;;5085709;28;20024;-51
2022/07/07 10:21:40;;;;;;;1.70;1.50;;;18.70;99.90;;;;;;5082782;28;20039;-53
2022/07/07 10:24:06;;;;;;;4.82;1.83;;;19.00;99.90;;;;;;5072091;28;20470;-54
2022/07/07 10:27:00;;;;;;;3.28;1.40;;;19.00;99.90;;;;;;5091524;28;20035;-48
2022/07/07 10:29:56;;;;;;;3.10;1.10;;;19.00;99.90;;;;;;5084897;28;20029;-52
2022/07/07 10:32:50;;;;;;;1.90;1.25;;;19.00;99.90;;;;;;5082715;28;20048;-49
2022/07/07 10:35:17;;;;;;;3.45;1.35;;;19.10;99.90;;;;;;5082004;28;20080;-51
2022/07/07 10:37:51;;;;;;;2.40;1.08;;;19.10;99.90;;;;;;5084847;28;20371;-52
2022/07/07 10:40:26;;;;;;;6.60;3.10;;;19.30;99.90;;;;;;5070587;28;20012;-50
2022/07/07 10:43:16;;;;;;;1.20;0.90;;;19.30;99.90;;;;;;5085341;28;20382;-49
2022/07/07 10:45:52;;;;;;;1.27;1.13;;;19.20;99.90;;;;;;5070680;28;20494;-53
2022/07/07 10:48:36;;;;;;;;;;;19.30;99.90;;;;;;5078800;28;20059;-52
2022/07/07 10:51:21;;;;;;;5.55;1.15;;;19.30;99.90;;;;;;5087429;28;19951;-51
2022/07/07 10:53:59;;;;;;;3.60;0.98;;;19.30;99.90;;;;;;5087032;28;20490;-50
2022/07/07 10:56:25;;;;;;;1.35;0.95;;;19.30;99.90;;;;;;5083975;28;20106;-49
2022/07/07 10:58:59;;;;;;;2.70;1.45;;;19.30;99.90;;;;;;5089219;28;20154;-49
2022/07/07 11:01:26;;;;;;;2.67;1.00;;;19.30;99.90;;;;;;5083739;28;20028;-52
2022/07/07 11:03:52;;;;;;;2.00;1.45;;;19.30;99.90;;;;;;5085543;28;20021;-49
2022/07/07 11:06:18;;;;;;;2.35;1.27;;;19.30;99.90;;;;;;5087704;28;20020;-52
2022/07/07 11:08:55;;;;;;;3.38;2.00;;;19.20;99.90;;;;;;5088400;28;20147;-49
2022/07/07 11:11:21;;;;;;;3.83;1.38;;;19.10;99.90;;;;;;5063621;28;20639;-49
2022/07/07 11:13:47;;;;;;;2.40;1.25;;;19.00;99.90;;;;;;5085872;28;20028;-50
2022/07/07 11:16:19;;;;;;;2.83;1.48;;;19.10;99.90;;;;;;5087436;28;20070;-51
2022/07/07 11:19:00;;;;;;;3.15;1.40;;;19.20;99.90;;;;;;5086475;28;20036;-49
2022/07/07 11:21:44;;;;;;;3.35;1.20;;;19.20;99.90;;;;;;5083677;28;20191;-48
2022/07/07 11:24:18;;;;;;;4.63;1.38;;;19.20;99.90;;;;;;5085022;28;20028;-52
2022/07/07 11:26:53;;;;;;;1.58;1.48;;;19.10;99.90;;;;;;5070549;28;20085;-51
2022/07/07 11:29:19;;;;;;;3.05;1.55;;;18.90;99.90;;;;;;5085185;28;20551;-49
2022/07/07 11:31:45;;;;;;;1.90;1.20;;;18.90;99.90;;;;;;5088626;28;20118;-53
2022/07/07 11:34:12;;;;;;;3.33;1.35;;;18.80;99.90;;;;;;5088979;28;20020;-53
2022/07/07 11:36:37;;;;;;;3.00;0.93;;;18.90;99.90;;;;;;5086540;28;20060;-54
2022/07/07 11:39:07;;;;;;;2.58;1.48;;;18.90;99.90;;;;;;5087133;28;20562;-51
2022/07/07 11:41:42;;;;;;;2.35;1.13;;;19.00;99.90;;;;;;5088751;28;20031;-50
2022/07/07 11:44:19;;;;;;;3.92;1.02;;;19.10;99.90;;;;;;5084820;28;20058;-51
2022/07/07 11:46:50;;;;;;;1.92;1.08;;;19.00;99.90;;;;;;5070099;28;20028;-51
2022/07/07 11:49:19;;;;;;;2.55;0.70;;;18.90;99.90;;;;;;5081624;28;20035;-49
2022/07/07 11:51:45;;;;;;;2.05;1.00;;;18.80;99.90;;;;;;5087695;28;20055;-52
2022/07/07 11:54:12;;;;;;;1.05;0.70;;;18.60;99.90;;;;;;5065296;28;20032;-50
2022/07/07 11:56:38;;;;;;;3.25;0.70;;;18.20;99.90;;;;;;5089681;28;20071;-50
2022/07/07 11:59:07;;;;;;;1.33;0.85;;;17.90;99.90;;;;;;5085669;28;20387;-49
2022/07/07 12:01:37;;;;;;;2.55;1.23;;;17.70;99.90;;;;;;5067411;28;20019;-50
2022/07/07 12:04:17;;;;;;;2.80;1.02;;;17.60;99.90;;;;;;5086961;28;20044;-49
2022/07/07 12:06:43;;;;;;;1.95;0.95;;;17.60;99.90;;;;;;5085450;28;20028;-54
2022/07/07 12:09:10;;;;;;;1.60;0.88;;;17.50;99.90;;;;;;5060037;28;20067;-51
2022/07/07 12:11:38;;;;;;;2.55;0.98;;;17.60;99.90;;;;;;5083747;28;20078;-54
2022/07/07 12:14:03;;;;;;;2.40;1.27;;;17.50;99.90;;;;;;5080849;28;20069;-55
2022/07/07 12:16:49;;;;;;;5.72;1.58;;;17.50;99.90;;;;;;5089516;28;20089;-54
2022/07/07 12:19:15;;;;;;;3.30;1.10;;;17.60;99.90;;;;;;5082586;28;20024;-53
2022/07/07 12:21:43;;;;;;;5.38;1.92;;;17.60;99.90;;;;;;5088930;28;20077;-51
2022/07/07 12:24:15;;;;;;;7.25;2.00;;;17.70;99.90;;;;;;5085291;28;20028;-55
2022/07/07 12:26:47;;;;;;;5.53;1.95;;;17.90;99.90;;;;;;5089333;28;20031;-51
2022/07/07 12:29:12;;;;;;;5.75;1.88;;;18.10;99.90;;;;;;5078891;28;20111;-55
2022/07/07 12:31:38;;;;;;;6.22;1.65;;;18.40;99.90;;;;;;5088409;28;20135;-54
2022/07/07 12:34:19;;;;;;;4.97;2.63;;;18.60;99.90;;;;;;5077886;28;20025;-51
2022/07/07 12:36:47;;;;;;;4.95;1.70;;;18.80;99.90;;;;;;5082600;28;20016;-55
2022/07/07 12:39:14;;;;;;;6.25;2.03;;;18.90;99.90;;;;;;5088525;28;20028;-52
2022/07/07 12:41:41;;;;;;;5.43;1.70;;;18.80;99.90;;;;;;5087856;28;20099;-51
2022/07/07 12:44:29;;;;;;;4.28;2.00;;;18.50;99.90;;;;;;5085173;28;20014;-51
2022/07/07 12:46:59;;;;;;;5.43;1.67;;;18.40;99.90;;;;;;5080374;28;20104;-54
2022/07/07 12:49:25;;;;;;;6.53;1.80;;;18.30;99.90;;;;;;5084314;28;20012;-58
2022/07/07 12:51:51;;;;;;;5.57;1.58;;;18.20;99.90;;;;;;5081449;28;20390;-51
2022/07/07 12:54:25;;;;;;;5.78;2.25;;;18.30;99.90;;;;;;5083164;28;20173;-52
2022/07/07 12:57:03;;;;;;;4.65;1.63;;;18.30;99.90;;;;;;5061009;28;20036;-55
2022/07/07 12:59:39;;;;;;;8.55;2.40;;;18.20;99.90;;;;;;5075520;28;20134;-56
2022/07/07 13:02:05;;;;;;;7.80;2.67;;;18.10;99.90;;;;;;5084328;28;20020;-53